sensor_id;sensor_type;location;lat;lon;timestamp;pressure;altitude;pressure_sealevel;temperature;humidity
68994;BME280;56054;50.968;5.816;2023-11-21T00:00:07;100244.81;;;9.80;100.00
68994;BME280;56054;50.968;5.816;2023-11-21T00:03:14;100253.13;;;9.90;100.00
68994;BME280;56054;50.968;5.816;2023-11-21T00:06:21;100245.88;;;9.84;100.00
68994;BME280;56054;50.968;5.816;2023-11-21T00:09:28;100250.25;;;9.85;100.00
68994;BME280;56054;50.968;5.816;2023-11-21T00:12:35;100249.03;;;9.78;100.00
68994;BME280;56054;50.968;5.816;2023-11-21T00:15:42;100252.22;;;9.89;100.00
68994;BME280;56054;50.968;5.816;2023-11-21T00:18:49;100252.78;;;9.83;100.00
68994;BME280;56054;50.968;5.816;2023-11-21T00:21:56;100259.84;;;9.71;100.00
68994;BME280;56054;50.968;5.816;2023-11-21T00:25:03;100256.34;;;10.00;100.00
68994;BME280;56054;50.968;5.816;2023-11-21T00:28:10;100260.09;;;10.20;100.00
68994;BME280;56054;50.968;5.816;2023-11-21T00:31:17;100255.94;;;10.24;100.00
68994;BME280;56054;50.968;5.816;2023-11-21T00:34:24;100264.38;;;10.20;100.00
68994;BME280;56054;50.968;5.816;2023-11-21T00:37:38;100270.00;;;10.27;100.00
68994;BME280;56054;50.968;5.816;2023-11-21T00:40:45;100280.59;;;10.31;100.00
68994;BME280;56054;50.968;5.816;2023-11-21T00:43:52;100275.81;;;10.23;100.00
68994;BME280;56054;50.968;5.816;2023-11-21T00:46:59;100278.34;;;10.22;100.00
68994;BME280;56054;50.968;5.816;2023-11-21T00:50:06;100270.63;;;10.23;100.00
68994;BME280;56054;50.968;5.816;2023-11-21T00:53:13;100280.47;;;10.14;100.00
68994;BME280;56054;50.968;5.816;2023-11-21T00:56:20;100283.81;;;10.12;100.00
68994;BME280;56054;50.968;5.816;2023-11-21T00:59:27;100292.50;;;10.12;100.00
68994;BME280;56054;50.968;5.816;2023-11-21T01:02:34;100282.63;;;10.21;100.00
68994;BME280;56054;50.968;5.816;2023-11-21T01:05:41;100296.75;;;10.26;100.00
68994;BME280;56054;50.968;5.816;2023-11-21T01:08:55;100283.63;;;10.08;100.00
68994;BME280;56054;50.968;5.816;2023-11-21T01:12:02;100281.19;;;10.26;100.00
68994;BME280;56054;50.968;5.816;2023-11-21T01:15:09;100293.22;;;10.24;100.00
68994;BME280;56054;50.968;5.816;2023-11-21T01:18:16;100292.97;;;10.05;100.00
68994;BME280;56054;50.968;5.816;2023-11-21T01:21:23;100295.81;;;10.10;100.00
68994;BME280;56054;50.968;5.816;2023-11-21T01:24:31;100299.84;;;10.19;100.00
68994;BME280;56054;50.968;5.816;2023-11-21T01:27:38;100291.97;;;10.33;100.00
68994;BME280;56054;50.968;5.816;2023-11-21T01:30:45;100301.81;;;10.08;100.00
68994;BME280;56054;50.968;5.816;2023-11-21T01:33:53;100311.13;;;10.05;100.00
68994;BME280;56054;50.968;5.816;2023-11-21T01:37:00;100307.16;;;10.26;100.00
68994;BME280;56054;50.968;5.816;2023-11-21T01:40:07;100306.94;;;10.37;100.00
68994;BME280;56054;50.968;5.816;2023-11-21T01:43:14;100309.50;;;10.22;100.00
68994;BME280;56054;50.968;5.816;2023-11-21T01:46:21;100311.41;;;10.39;100.00
68994;BME280;56054;50.968;5.816;2023-11-21T01:49:33;100304.50;;;10.10;100.00
68994;BME280;56054;50.968;5.816;2023-11-21T01:52:40;100314.06;;;10.11;100.00
68994;BME280;56054;50.968;5.816;2023-11-21T01:55:47;100306.81;;;10.20;100.00
68994;BME280;56054;50.968;5.816;2023-11-21T01:58:54;100305.66;;;10.15;100.00
68994;BME280;56054;50.968;5.816;2023-11-21T02:02:01;100311.03;;;10.18;100.00
68994;BME280;56054;50.968;5.816;2023-11-21T02:05:11;100309.31;;;10.19;100.00
68994;BME280;56054;50.968;5.816;2023-11-21T02:08:18;100306.00;;;10.36;100.00
68994;BME280;56054;50.968;5.816;2023-11-21T02:11:25;100305.38;;;10.25;100.00
68994;BME280;56054;50.968;5.816;2023-11-21T02:14:33;100308.06;;;10.27;100.00
68994;BME280;56054;50.968;5.816;2023-11-21T02:17:43;100316.06;;;10.30;100.00
68994;BME280;56054;50.968;5.816;2023-11-21T02:20:50;100315.44;;;10.19;100.00
68994;BME280;56054;50.968;5.816;2023-11-21T02:23:57;100316.88;;;10.29;100.00
68994;BME280;56054;50.968;5.816;2023-11-21T02:27:04;100324.38;;;10.39;100.00
68994;BME280;56054;50.968;5.816;2023-11-21T02:30:11;100329.16;;;10.32;100.00
68994;BME280;56054;50.968;5.816;2023-11-21T02:33:18;100332.97;;;10.38;100.00
68994;BME280;56054;50.968;5.816;2023-11-21T02:36:25;100323.84;;;10.45;100.00
68994;BME280;56054;50.968;5.816;2023-11-21T02:39:32;100310.25;;;10.34;100.00
68994;BME280;56054;50.968;5.816;2023-11-21T02:42:40;100322.16;;;10.31;100.00
68994;BME280;56054;50.968;5.816;2023-11-21T02:45:47;100331.91;;;10.35;100.00
68994;BME280;56054;50.968;5.816;2023-11-21T02:48:54;100339.25;;;10.12;100.00
68994;BME280;56054;50.968;5.816;2023-11-21T02:52:01;100333.13;;;10.26;100.00
68994;BME280;56054;50.968;5.816;2023-11-21T02:55:10;100341.72;;;10.25;100.00
68994;BME280;56054;50.968;5.816;2023-11-21T02:58:17;100343.50;;;10.26;100.00
68994;BME280;56054;50.968;5.816;2023-11-21T03:01:24;100345.69;;;10.34;100.00
68994;BME280;56054;50.968;5.816;2023-11-21T03:04:31;100342.91;;;10.16;100.00
68994;BME280;56054;50.968;5.816;2023-11-21T03:07:39;100350.13;;;10.21;100.00
68994;BME280;56054;50.968;5.816;2023-11-21T03:10:46;100350.34;;;10.24;100.00
68994;BME280;56054;50.968;5.816;2023-11-21T03:13:53;100355.88;;;10.01;100.00
68994;BME280;56054;50.968;5.816;2023-11-21T03:17:00;100356.13;;;9.91;100.00
68994;BME280;56054;50.968;5.816;2023-11-21T03:20:07;100348.84;;;9.85;100.00
68994;BME280;56054;50.968;5.816;2023-11-21T03:23:14;100357.13;;;10.07;100.00
68994;BME280;56054;50.968;5.816;2023-11-21T03:26:21;100364.66;;;10.03;100.00
68994;BME280;56054;50.968;5.816;2023-11-21T03:29:28;100361.41;;;10.07;100.00
68994;BME280;56054;50.968;5.816;2023-11-21T03:32:35;100366.88;;;10.26;100.00
68994;BME280;56054;50.968;5.816;2023-11-21T03:35:42;100379.13;;;10.14;100.00
68994;BME280;56054;50.968;5.816;2023-11-21T03:38:49;100382.19;;;10.07;100.00
68994;BME280;56054;50.968;5.816;2023-11-21T03:41:56;100383.53;;;10.15;100.00
68994;BME280;56054;50.968;5.816;2023-11-21T03:45:04;100376.63;;;9.86;100.00
68994;BME280;56054;50.968;5.816;2023-11-21T03:48:12;100370.34;;;9.82;100.00
68994;BME280;56054;50.968;5.816;2023-11-21T03:51:19;100378.59;;;9.90;100.00
68994;BME280;56054;50.968;5.816;2023-11-21T03:54:26;100382.81;;;9.60;100.00
68994;BME280;56054;50.968;5.816;2023-11-21T03:57:33;100388.72;;;9.57;100.00
68994;BME280;56054;50.968;5.816;2023-11-21T04:00:40;100388.38;;;9.66;100.00
68994;BME280;56054;50.968;5.816;2023-11-21T04:03:48;100388.63;;;9.99;100.00
68994;BME280;56054;50.968;5.816;2023-11-21T04:06:55;100393.28;;;9.61;100.00
68994;BME280;56054;50.968;5.816;2023-11-21T04:10:04;100384.66;;;9.76;100.00
68994;BME280;56054;50.968;5.816;2023-11-21T04:13:11;100403.44;;;10.15;100.00
68994;BME280;56054;50.968;5.816;2023-11-21T04:16:18;100403.03;;;9.94;100.00
68994;BME280;56054;50.968;5.816;2023-11-21T04:19:25;100408.97;;;10.21;100.00
68994;BME280;56054;50.968;5.816;2023-11-21T04:22:32;100409.56;;;10.02;100.00
68994;BME280;56054;50.968;5.816;2023-11-21T04:25:39;100405.09;;;10.14;100.00
68994;BME280;56054;50.968;5.816;2023-11-21T04:28:47;100415.56;;;10.01;100.00
68994;BME280;56054;50.968;5.816;2023-11-21T04:31:54;100410.91;;;9.95;100.00
68994;BME280;56054;50.968;5.816;2023-11-21T04:35:02;100412.88;;;9.99;100.00
68994;BME280;56054;50.968;5.816;2023-11-21T04:38:09;100408.25;;;10.23;100.00
68994;BME280;56054;50.968;5.816;2023-11-21T04:41:16;100409.94;;;10.08;100.00
68994;BME280;56054;50.968;5.816;2023-11-21T04:44:23;100411.22;;;10.15;100.00
68994;BME280;56054;50.968;5.816;2023-11-21T04:47:31;100413.59;;;10.12;100.00
68994;BME280;56054;50.968;5.816;2023-11-21T04:50:38;100420.69;;;10.14;100.00
68994;BME280;56054;50.968;5.816;2023-11-21T04:53:46;100418.53;;;10.07;100.00
68994;BME280;56054;50.968;5.816;2023-11-21T04:56:53;100428.91;;;10.07;100.00
68994;BME280;56054;50.968;5.816;2023-11-21T05:00:00;100422.66;;;10.03;100.00
68994;BME280;56054;50.968;5.816;2023-11-21T05:03:07;100421.88;;;10.19;100.00
68994;BME280;56054;50.968;5.816;2023-11-21T05:06:16;100440.34;;;9.96;100.00
68994;BME280;56054;50.968;5.816;2023-11-21T05:09:23;100435.28;;;10.12;100.00
68994;BME280;56054;50.968;5.816;2023-11-21T05:12:31;100434.50;;;9.85;100.00
68994;BME280;56054;50.968;5.816;2023-11-21T05:15:38;100447.25;;;9.95;100.00
68994;BME280;56054;50.968;5.816;2023-11-21T05:18:45;100444.81;;;9.83;100.00
68994;BME280;56054;50.968;5.816;2023-11-21T05:21:52;100446.63;;;9.71;100.00
68994;BME280;56054;50.968;5.816;2023-11-21T05:24:59;100453.31;;;9.68;100.00
68994;BME280;56054;50.968;5.816;2023-11-21T05:28:06;100455.94;;;9.96;100.00
68994;BME280;56054;50.968;5.816;2023-11-21T05:31:13;100460.78;;;9.76;100.00
68994;BME280;56054;50.968;5.816;2023-11-21T05:34:20;100466.91;;;9.92;100.00
68994;BME280;56054;50.968;5.816;2023-11-21T05:37:28;100475.75;;;9.80;100.00
68994;BME280;56054;50.968;5.816;2023-11-21T05:40:35;100476.31;;;9.90;100.00
68994;BME280;56054;50.968;5.816;2023-11-21T05:43:42;100477.66;;;9.70;100.00
68994;BME280;56054;50.968;5.816;2023-11-21T05:46:49;100482.72;;;9.81;100.00
68994;BME280;56054;50.968;5.816;2023-11-21T05:49:56;100480.28;;;9.98;100.00
68994;BME280;56054;50.968;5.816;2023-11-21T05:53:03;100483.91;;;9.86;100.00
68994;BME280;56054;50.968;5.816;2023-11-21T05:56:10;100490.16;;;9.62;100.00
68994;BME280;56054;50.968;5.816;2023-11-21T05:59:17;100498.00;;;9.77;100.00
68994;BME280;56054;50.968;5.816;2023-11-21T06:02:24;100492.28;;;9.82;100.00
68994;BME280;56054;50.968;5.816;2023-11-21T06:05:32;100497.69;;;9.85;100.00
68994;BME280;56054;50.968;5.816;2023-11-21T06:08:39;100503.00;;;9.74;100.00
68994;BME280;56054;50.968;5.816;2023-11-21T06:11:46;100513.03;;;9.96;100.00
68994;BME280;56054;50.968;5.816;2023-11-21T06:14:53;100518.97;;;10.08;100.00
68994;BME280;56054;50.968;5.816;2023-11-21T06:18:00;100519.69;;;10.05;100.00
68994;BME280;56054;50.968;5.816;2023-11-21T06:21:10;100527.00;;;9.98;100.00
68994;BME280;56054;50.968;5.816;2023-11-21T06:24:17;100529.38;;;10.08;100.00
68994;BME280;56054;50.968;5.816;2023-11-21T06:27:25;100525.44;;;9.86;100.00
68994;BME280;56054;50.968;5.816;2023-11-21T06:30:33;100532.84;;;10.08;100.00
68994;BME280;56054;50.968;5.816;2023-11-21T06:33:40;100531.59;;;10.17;100.00
68994;BME280;56054;50.968;5.816;2023-11-21T06:36:48;100526.53;;;10.18;100.00
68994;BME280;56054;50.968;5.816;2023-11-21T06:39:56;100538.16;;;10.10;100.00
68994;BME280;56054;50.968;5.816;2023-11-21T06:43:04;100548.56;;;10.25;100.00
68994;BME280;56054;50.968;5.816;2023-11-21T06:46:12;100552.88;;;10.24;100.00
68994;BME280;56054;50.968;5.816;2023-11-21T06:49:19;100552.13;;;10.12;100.00
68994;BME280;56054;50.968;5.816;2023-11-21T06:52:26;100563.22;;;10.38;100.00
68994;BME280;56054;50.968;5.816;2023-11-21T06:55:33;100571.97;;;10.12;100.00
68994;BME280;56054;50.968;5.816;2023-11-21T06:58:40;100576.38;;;10.13;100.00
68994;BME280;56054;50.968;5.816;2023-11-21T07:01:54;100568.66;;;9.86;100.00
68994;BME280;56054;50.968;5.816;2023-11-21T07:05:01;100574.44;;;9.95;100.00
68994;BME280;56054;50.968;5.816;2023-11-21T07:08:08;100583.41;;;9.87;100.00
68994;BME280;56054;50.968;5.816;2023-11-21T07:11:16;100583.41;;;9.87;100.00
68994;BME280;56054;50.968;5.816;2023-11-21T07:14:23;100589.72;;;9.77;100.00
68994;BME280;56054;50.968;5.816;2023-11-21T07:17:31;100594.50;;;9.84;100.00
68994;BME280;56054;50.968;5.816;2023-11-21T07:20:39;100601.97;;;9.80;100.00
68994;BME280;56054;50.968;5.816;2023-11-21T07:23:47;100594.28;;;9.95;100.00
68994;BME280;56054;50.968;5.816;2023-11-21T07:26:54;100618.97;;;9.75;100.00
68994;BME280;56054;50.968;5.816;2023-11-21T07:30:04;100611.88;;;9.72;100.00
68994;BME280;56054;50.968;5.816;2023-11-21T07:33:11;100614.28;;;9.69;100.00
68994;BME280;56054;50.968;5.816;2023-11-21T07:36:19;100613.19;;;9.79;100.00
68994;BME280;56054;50.968;5.816;2023-11-21T07:39:26;100615.97;;;9.95;100.00
68994;BME280;56054;50.968;5.816;2023-11-21T07:42:33;100621.06;;;9.80;100.00
68994;BME280;56054;50.968;5.816;2023-11-21T07:45:40;100614.09;;;9.66;100.00
68994;BME280;56054;50.968;5.816;2023-11-21T07:48:47;100627.13;;;9.94;100.00
68994;BME280;56054;50.968;5.816;2023-11-21T07:51:54;100640.88;;;10.06;100.00
68994;BME280;56054;50.968;5.816;2023-11-21T07:55:02;100639.41;;;9.97;100.00
68994;BME280;56054;50.968;5.816;2023-11-21T07:58:09;100648.97;;;10.11;100.00
68994;BME280;56054;50.968;5.816;2023-11-21T08:01:16;100651.56;;;10.24;100.00
68994;BME280;56054;50.968;5.816;2023-11-21T08:04:23;100656.81;;;10.26;100.00
68994;BME280;56054;50.968;5.816;2023-11-21T08:07:30;100662.34;;;10.31;100.00
68994;BME280;56054;50.968;5.816;2023-11-21T08:10:37;100663.94;;;10.42;100.00
68994;BME280;56054;50.968;5.816;2023-11-21T08:13:44;100671.72;;;10.42;100.00
68994;BME280;56054;50.968;5.816;2023-11-21T08:16:51;100671.94;;;10.18;100.00
68994;BME280;56054;50.968;5.816;2023-11-21T08:19:58;100681.09;;;10.26;100.00
68994;BME280;56054;50.968;5.816;2023-11-21T08:23:06;100674.72;;;10.35;100.00
68994;BME280;56054;50.968;5.816;2023-11-21T08:26:16;100686.34;;;10.00;100.00
68994;BME280;56054;50.968;5.816;2023-11-21T08:29:23;100689.72;;;10.12;100.00
68994;BME280;56054;50.968;5.816;2023-11-21T08:32:30;100692.31;;;10.12;100.00
68994;BME280;56054;50.968;5.816;2023-11-21T08:35:37;100692.88;;;10.21;100.00
68994;BME280;56054;50.968;5.816;2023-11-21T08:38:45;100697.94;;;10.32;100.00
68994;BME280;56054;50.968;5.816;2023-11-21T08:41:52;100700.00;;;10.37;100.00
68994;BME280;56054;50.968;5.816;2023-11-21T08:44:59;100704.47;;;10.26;100.00
68994;BME280;56054;50.968;5.816;2023-11-21T08:48:06;100702.00;;;10.41;100.00
68994;BME280;56054;50.968;5.816;2023-11-21T08:51:13;100712.69;;;10.19;100.00
68994;BME280;56054;50.968;5.816;2023-11-21T08:54:20;100717.00;;;10.32;100.00
68994;BME280;56054;50.968;5.816;2023-11-21T08:57:27;100717.28;;;10.37;100.00
68994;BME280;56054;50.968;5.816;2023-11-21T09:00:34;100726.75;;;10.23;100.00
68994;BME280;56054;50.968;5.816;2023-11-21T09:03:41;100725.38;;;10.28;100.00
68994;BME280;56054;50.968;5.816;2023-11-21T09:06:48;100725.44;;;10.16;100.00
68994;BME280;56054;50.968;5.816;2023-11-21T09:09:55;100725.75;;;9.94;100.00
68994;BME280;56054;50.968;5.816;2023-11-21T09:13:02;100734.75;;;10.13;100.00
68994;BME280;56054;50.968;5.816;2023-11-21T09:16:09;100738.03;;;10.23;100.00
68994;BME280;56054;50.968;5.816;2023-11-21T09:19:16;100742.56;;;10.39;100.00
68994;BME280;56054;50.968;5.816;2023-11-21T09:22:23;100751.94;;;10.11;100.00
68994;BME280;56054;50.968;5.816;2023-11-21T09:25:30;100753.94;;;10.15;100.00
68994;BME280;56054;50.968;5.816;2023-11-21T09:28:37;100755.00;;;10.18;100.00
68994;BME280;56054;50.968;5.816;2023-11-21T09:31:44;100760.63;;;10.24;100.00
68994;BME280;56054;50.968;5.816;2023-11-21T09:34:51;100759.91;;;10.14;100.00
68994;BME280;56054;50.968;5.816;2023-11-21T09:37:58;100763.63;;;10.17;100.00
68994;BME280;56054;50.968;5.816;2023-11-21T09:41:11;100759.22;;;10.03;100.00
68994;BME280;56054;50.968;5.816;2023-11-21T09:44:29;100762.91;;;10.20;100.00
68994;BME280;56054;50.968;5.816;2023-11-21T09:47:40;100753.59;;;9.97;100.00
68994;BME280;56054;50.968;5.816;2023-11-21T09:50:47;100752.84;;;10.24;100.00
68994;BME280;56054;50.968;5.816;2023-11-21T09:53:55;100757.22;;;10.25;100.00
68994;BME280;56054;50.968;5.816;2023-11-21T09:57:03;100764.19;;;10.53;100.00
68994;BME280;56054;50.968;5.816;2023-11-21T10:00:12;100769.72;;;10.44;100.00
68994;BME280;56054;50.968;5.816;2023-11-21T10:03:19;100773.22;;;10.45;100.00
68994;BME280;56054;50.968;5.816;2023-11-21T10:06:26;100779.00;;;10.41;100.00
68994;BME280;56054;50.968;5.816;2023-11-21T10:09:36;100777.00;;;10.50;100.00
68994;BME280;56054;50.968;5.816;2023-11-21T10:12:47;100790.59;;;10.59;100.00
68994;BME280;56054;50.968;5.816;2023-11-21T10:15:55;100790.06;;;10.65;100.00
68994;BME280;56054;50.968;5.816;2023-11-21T10:19:03;100787.66;;;10.68;100.00
68994;BME280;56054;50.968;5.816;2023-11-21T10:22:11;100788.78;;;10.58;100.00
68994;BME280;56054;50.968;5.816;2023-11-21T10:25:19;100786.56;;;10.64;100.00
68994;BME280;56054;50.968;5.816;2023-11-21T10:28:26;100804.88;;;10.53;100.00
68994;BME280;56054;50.968;5.816;2023-11-21T10:31:33;100801.69;;;10.57;100.00
68994;BME280;56054;50.968;5.816;2023-11-21T10:34:40;100800.78;;;10.56;100.00
68994;BME280;56054;50.968;5.816;2023-11-21T10:38:00;100799.50;;;10.49;100.00
68994;BME280;56054;50.968;5.816;2023-11-21T10:41:11;100793.78;;;10.68;100.00
68994;BME280;56054;50.968;5.816;2023-11-21T10:44:18;100803.53;;;10.73;100.00
68994;BME280;56054;50.968;5.816;2023-11-21T10:47:30;100800.75;;;10.69;100.00
68994;BME280;56054;50.968;5.816;2023-11-21T10:50:37;100807.47;;;10.66;100.00
68994;BME280;56054;50.968;5.816;2023-11-21T10:53:44;100810.59;;;10.47;100.00
68994;BME280;56054;50.968;5.816;2023-11-21T10:56:58;100805.19;;;10.57;100.00
68994;BME280;56054;50.968;5.816;2023-11-21T11:00:07;100814.34;;;10.65;100.00
68994;BME280;56054;50.968;5.816;2023-11-21T11:03:15;100812.28;;;10.46;100.00
68994;BME280;56054;50.968;5.816;2023-11-21T11:06:23;100801.94;;;10.75;100.00
68994;BME280;56054;50.968;5.816;2023-11-21T11:09:30;100820.34;;;10.64;100.00
68994;BME280;56054;50.968;5.816;2023-11-21T11:12:37;100810.78;;;10.50;100.00
68994;BME280;56054;50.968;5.816;2023-11-21T11:15:48;100812.19;;;10.32;100.00
68994;BME280;56054;50.968;5.816;2023-11-21T11:18:55;100814.19;;;10.49;100.00
68994;BME280;56054;50.968;5.816;2023-11-21T11:26:32;100812.47;;;10.36;100.00
68994;BME280;56054;50.968;5.816;2023-11-21T11:30:11;100814.75;;;10.58;100.00
68994;BME280;56054;50.968;5.816;2023-11-21T11:37:11;100817.06;;;10.80;100.00
68994;BME280;56054;50.968;5.816;2023-11-21T11:40:17;100812.16;;;10.71;100.00
68994;BME280;56054;50.968;5.816;2023-11-21T11:43:25;100816.75;;;10.76;100.00
68994;BME280;56054;50.968;5.816;2023-11-21T11:46:44;100819.34;;;10.76;100.00
68994;BME280;56054;50.968;5.816;2023-11-21T11:50:10;100818.75;;;10.66;100.00
68994;BME280;56054;50.968;5.816;2023-11-21T11:53:17;100827.97;;;10.61;100.00
68994;BME280;56054;50.968;5.816;2023-11-21T11:56:29;100826.75;;;10.83;100.00
68994;BME280;56054;50.968;5.816;2023-11-21T12:00:12;100838.53;;;10.78;100.00
68994;BME280;56054;50.968;5.816;2023-11-21T12:03:19;100829.34;;;10.69;100.00
68994;BME280;56054;50.968;5.816;2023-11-21T12:06:34;100830.72;;;10.91;100.00
68994;BME280;56054;50.968;5.816;2023-11-21T12:09:50;100838.34;;;11.16;100.00
68994;BME280;56054;50.968;5.816;2023-11-21T12:12:58;100838.44;;;11.18;100.00
68994;BME280;56054;50.968;5.816;2023-11-21T12:16:06;100841.06;;;11.18;100.00
68994;BME280;56054;50.968;5.816;2023-11-21T12:19:13;100855.41;;;11.26;100.00
68994;BME280;56054;50.968;5.816;2023-11-21T12:22:20;100855.81;;;11.32;100.00
68994;BME280;56054;50.968;5.816;2023-11-21T12:25:30;100857.41;;;11.30;100.00
68994;BME280;56054;50.968;5.816;2023-11-21T12:28:37;100862.50;;;11.28;100.00
68994;BME280;56054;50.968;5.816;2023-11-21T12:31:44;100866.88;;;11.01;100.00
68994;BME280;56054;50.968;5.816;2023-11-21T12:34:51;100867.00;;;11.03;100.00
68994;BME280;56054;50.968;5.816;2023-11-21T12:37:59;100868.19;;;10.95;100.00
68994;BME280;56054;50.968;5.816;2023-11-21T12:41:05;100861.16;;;11.20;100.00
68994;BME280;56054;50.968;5.816;2023-11-21T12:44:13;100864.19;;;11.00;100.00
68994;BME280;56054;50.968;5.816;2023-11-21T12:47:20;100867.06;;;11.18;100.00
68994;BME280;56054;50.968;5.816;2023-11-21T12:50:28;100877.88;;;10.97;100.00
68994;BME280;56054;50.968;5.816;2023-11-21T12:53:36;100875.91;;;10.93;100.00
68994;BME280;56054;50.968;5.816;2023-11-21T12:56:45;100883.41;;;10.88;100.00
68994;BME280;56054;50.968;5.816;2023-11-21T12:59:57;100881.59;;;10.87;100.00
68994;BME280;56054;50.968;5.816;2023-11-21T13:03:12;100878.41;;;10.91;100.00
68994;BME280;56054;50.968;5.816;2023-11-21T13:06:20;100874.94;;;11.19;100.00
68994;BME280;56054;50.968;5.816;2023-11-21T13:09:34;100882.84;;;11.21;100.00
68994;BME280;56054;50.968;5.816;2023-11-21T13:12:45;100901.09;;;11.07;100.00
68994;BME280;56054;50.968;5.816;2023-11-21T13:15:54;100895.38;;;11.00;100.00
68994;BME280;56054;50.968;5.816;2023-11-21T13:19:01;100896.38;;;11.15;100.00
68994;BME280;56054;50.968;5.816;2023-11-21T13:22:08;100896.44;;;11.17;100.00
68994;BME280;56054;50.968;5.816;2023-11-21T13:25:16;100906.72;;;11.00;100.00
68994;BME280;56054;50.968;5.816;2023-11-21T13:28:23;100902.28;;;10.99;100.00
68994;BME280;56054;50.968;5.816;2023-11-21T13:31:30;100908.59;;;11.03;100.00
68994;BME280;56054;50.968;5.816;2023-11-21T13:34:37;100906.22;;;10.79;100.00
68994;BME280;56054;50.968;5.816;2023-11-21T13:37:44;100911.69;;;10.97;100.00
68994;BME280;56054;50.968;5.816;2023-11-21T13:40:52;100911.31;;;10.91;100.00
68994;BME280;56054;50.968;5.816;2023-11-21T13:44:00;100910.50;;;10.92;100.00
68994;BME280;56054;50.968;5.816;2023-11-21T13:47:07;100916.28;;;11.01;100.00
68994;BME280;56054;50.968;5.816;2023-11-21T13:50:14;100909.97;;;11.11;100.00
68994;BME280;56054;50.968;5.816;2023-11-21T13:53:21;100921.28;;;10.85;100.00
68994;BME280;56054;50.968;5.816;2023-11-21T13:56:28;100927.50;;;10.74;100.00
68994;BME280;56054;50.968;5.816;2023-11-21T13:59:35;100926.88;;;10.78;100.00
68994;BME280;56054;50.968;5.816;2023-11-21T14:02:42;100921.69;;;10.78;100.00
68994;BME280;56054;50.968;5.816;2023-11-21T14:05:49;100919.31;;;10.81;100.00
68994;BME280;56054;50.968;5.816;2023-11-21T14:08:56;100925.34;;;11.21;100.00
68994;BME280;56054;50.968;5.816;2023-11-21T14:12:03;100931.91;;;11.14;100.00
68994;BME280;56054;50.968;5.816;2023-11-21T14:15:10;100931.50;;;10.95;100.00
68994;BME280;56054;50.968;5.816;2023-11-21T14:18:17;100937.66;;;11.24;100.00
68994;BME280;56054;50.968;5.816;2023-11-21T14:21:24;100936.09;;;11.12;100.00
68994;BME280;56054;50.968;5.816;2023-11-21T14:24:31;100947.91;;;11.07;100.00
68994;BME280;56054;50.968;5.816;2023-11-21T14:27:38;100944.19;;;10.77;100.00
68994;BME280;56054;50.968;5.816;2023-11-21T14:30:46;100951.22;;;10.78;100.00
68994;BME280;56054;50.968;5.816;2023-11-21T14:33:53;100949.69;;;10.82;100.00
68994;BME280;56054;50.968;5.816;2023-11-21T14:37:00;100955.31;;;10.88;100.00
68994;BME280;56054;50.968;5.816;2023-11-21T14:40:07;100964.00;;;10.88;100.00
68994;BME280;56054;50.968;5.816;2023-11-21T14:43:14;100972.09;;;10.80;100.00
68994;BME280;56054;50.968;5.816;2023-11-21T14:46:21;100977.97;;;10.77;100.00
68994;BME280;56054;50.968;5.816;2023-11-21T14:49:28;100977.28;;;10.80;100.00
68994;BME280;56054;50.968;5.816;2023-11-21T14:52:35;100983.09;;;10.89;100.00
68994;BME280;56054;50.968;5.816;2023-11-21T14:55:42;100993.28;;;10.73;100.00
68994;BME280;56054;50.968;5.816;2023-11-21T14:58:49;101004.47;;;10.71;100.00
68994;BME280;56054;50.968;5.816;2023-11-21T15:01:57;101000.69;;;10.80;100.00
68994;BME280;56054;50.968;5.816;2023-11-21T15:05:04;101011.19;;;10.81;100.00
68994;BME280;56054;50.968;5.816;2023-11-21T15:08:11;101010.69;;;10.87;100.00
68994;BME280;56054;50.968;5.816;2023-11-21T15:11:18;101017.00;;;10.90;100.00
68994;BME280;56054;50.968;5.816;2023-11-21T15:14:25;101018.47;;;10.87;100.00
68994;BME280;56054;50.968;5.816;2023-11-21T15:17:39;101024.19;;;10.81;100.00
68994;BME280;56054;50.968;5.816;2023-11-21T15:20:46;101025.38;;;10.86;100.00
68994;BME280;56054;50.968;5.816;2023-11-21T15:23:53;101032.38;;;10.87;100.00
68994;BME280;56054;50.968;5.816;2023-11-21T15:27:00;101043.84;;;10.78;100.00
68994;BME280;56054;50.968;5.816;2023-11-21T15:30:07;101039.91;;;10.83;100.00
68994;BME280;56054;50.968;5.816;2023-11-21T15:33:14;101037.50;;;10.86;100.00
68994;BME280;56054;50.968;5.816;2023-11-21T15:36:21;101050.19;;;10.95;100.00
68994;BME280;56054;50.968;5.816;2023-11-21T15:39:29;101057.03;;;10.67;100.00
68994;BME280;56054;50.968;5.816;2023-11-21T15:42:36;101053.66;;;10.82;100.00
68994;BME280;56054;50.968;5.816;2023-11-21T15:45:43;101056.09;;;10.92;100.00
68994;BME280;56054;50.968;5.816;2023-11-21T15:48:50;101069.28;;;10.82;100.00
68994;BME280;56054;50.968;5.816;2023-11-21T15:51:57;101059.88;;;10.70;100.00
68994;BME280;56054;50.968;5.816;2023-11-21T15:55:04;101081.50;;;10.83;100.00
68994;BME280;56054;50.968;5.816;2023-11-21T15:58:11;101080.81;;;10.60;100.00
68994;BME280;56054;50.968;5.816;2023-11-21T16:01:18;101091.06;;;10.70;100.00
68994;BME280;56054;50.968;5.816;2023-11-21T16:04:25;101092.38;;;10.52;100.00
68994;BME280;56054;50.968;5.816;2023-11-21T16:07:32;101103.25;;;10.71;100.00
68994;BME280;56054;50.968;5.816;2023-11-21T16:10:39;101113.81;;;10.61;100.00
68994;BME280;56054;50.968;5.816;2023-11-21T16:13:46;101114.13;;;10.66;100.00
68994;BME280;56054;50.968;5.816;2023-11-21T16:16:54;101118.03;;;10.73;100.00
68994;BME280;56054;50.968;5.816;2023-11-21T16:20:00;101121.81;;;10.64;100.00